createdAt,value
2018-09-11T00:01:41.033Z,18.49
2018-09-11T00:04:09.965Z,18.48
2018-09-11T00:06:38.629Z,18.46
2018-09-11T00:09:08.700Z,18.45
2018-09-11T00:11:37.897Z,18.47
2018-09-11T00:14:06.365Z,18.47
2018-09-11T00:16:34.987Z,18.50
2018-09-11T00:19:03.736Z,18.50
2018-09-11T00:21:32.154Z,18.48
2018-09-11T00:24:02.307Z,18.48
2018-09-11T00:26:30.913Z,18.49
2018-09-11T00:28:59.341Z,18.51
2018-09-11T00:31:27.772Z,18.44
2018-09-11T00:33:56.235Z,18.42
2018-09-11T00:36:24.813Z,18.40
2018-09-11T00:38:53.619Z,18.39
2018-09-11T00:41:22.028Z,18.39
2018-09-11T00:43:50.487Z,18.40
2018-09-11T00:46:19.343Z,18.38
2018-09-11T00:48:47.797Z,18.36
2018-09-11T00:51:15.889Z,18.33
2018-09-11T00:53:44.226Z,18.29
2018-09-11T00:56:13.100Z,18.24
2018-09-11T00:58:41.520Z,18.21
2018-09-11T01:01:10.332Z,18.18
2018-09-11T01:03:38.776Z,18.15
2018-09-11T01:06:07.144Z,18.13
2018-09-11T01:08:36.237Z,18.13
2018-09-11T01:11:04.341Z,18.12
2018-09-11T01:13:32.766Z,18.13
2018-09-11T01:16:01.209Z,18.13
2018-09-11T01:18:29.644Z,18.11
2018-09-11T01:20:58.064Z,18.12
2018-09-11T01:23:26.749Z,18.13
2018-09-11T01:25:55.441Z,18.16
2018-09-11T01:28:23.881Z,18.17
2018-09-11T01:30:52.736Z,18.17
2018-09-11T01:33:21.170Z,18.16
2018-09-11T01:35:49.628Z,18.15
2018-09-11T01:38:18.065Z,18.12
2018-09-11T01:40:46.149Z,18.12
2018-09-11T01:43:14.277Z,18.10
2018-09-11T01:45:42.722Z,18.08
2018-09-11T01:48:10.901Z,18.06
2018-09-11T01:50:39.345Z,18.01
2018-09-11T01:53:08.305Z,18.00
2018-09-11T01:55:36.758Z,17.98
2018-09-11T01:58:04.920Z,17.97
2018-09-11T02:00:33.276Z,17.95
2018-09-11T02:03:01.941Z,17.88
2018-09-11T02:05:30.377Z,17.89
2018-09-11T02:07:59.062Z,17.86
2018-09-11T02:10:27.537Z,17.85
2018-09-11T02:12:55.979Z,17.84
2018-09-11T02:15:24.295Z,17.81
2018-09-11T02:17:52.738Z,17.77
2018-09-11T02:20:21.165Z,17.76
2018-09-11T02:22:49.601Z,17.78
2018-09-11T02:25:18.050Z,17.78
2018-09-11T02:27:46.486Z,17.76
2018-09-11T02:30:14.923Z,17.74
2018-09-11T02:32:43.557Z,17.75
2018-09-11T02:35:22.557Z,17.77
2018-09-11T02:37:50.645Z,17.72
2018-09-11T02:40:19.369Z,17.70
2018-09-11T02:42:47.525Z,17.70
2018-09-11T02:45:16.186Z,17.70
2018-09-11T02:47:44.886Z,17.69
2018-09-11T02:50:13.219Z,17.66
2018-09-11T02:52:41.652Z,17.62
2018-09-11T02:55:10.089Z,17.57
2018-09-11T02:57:38.537Z,17.56
2018-09-11T03:00:06.646Z,17.51
2018-09-11T03:02:35.089Z,17.53
2018-09-11T03:05:03.469Z,17.54
2018-09-11T03:07:32.162Z,17.51
2018-09-11T03:10:00.602Z,17.50
2018-09-11T03:12:28.906Z,17.49
2018-09-11T03:14:58.618Z,17.49
2018-09-11T03:17:27.045Z,17.51
2018-09-11T03:19:55.530Z,17.51
2018-09-11T03:22:23.658Z,17.51
2018-09-11T03:24:52.292Z,17.50
2018-09-11T03:27:21.372Z,17.52
2018-09-11T03:29:49.793Z,17.52
2018-09-11T03:32:18.230Z,17.53
2018-09-11T03:34:46.653Z,17.56
2018-09-11T03:37:15.905Z,17.58
2018-09-11T03:39:44.530Z,17.60
2018-09-11T03:42:12.983Z,17.60
2018-09-11T03:44:41.649Z,17.59
2018-09-11T03:47:10.313Z,17.58
2018-09-11T03:49:38.784Z,17.54
2018-09-11T03:52:07.978Z,17.52
2018-09-11T03:54:36.275Z,17.48
2018-09-11T03:57:04.489Z,17.47
2018-09-11T03:59:32.582Z,17.45
2018-09-11T04:02:02.052Z,17.42
2018-09-11T04:04:30.498Z,17.39
2018-09-11T04:06:59.604Z,17.35
2018-09-11T04:09:28.511Z,17.27
2018-09-11T04:11:57.189Z,17.24
2018-09-11T04:14:25.623Z,17.21
2018-09-11T04:16:54.069Z,17.20
2018-09-11T04:19:22.728Z,17.15
2018-09-11T04:21:51.309Z,17.15
2018-09-11T04:24:19.735Z,17.13
2018-09-11T04:26:48.193Z,17.11
2018-09-11T04:29:16.301Z,17.08
2018-09-11T04:31:44.970Z,17.04
2018-09-11T04:34:13.457Z,17.02
2018-09-11T04:36:41.886Z,17.00
2018-09-11T04:39:10.369Z,17.00
2018-09-11T04:41:38.839Z,17.02
2018-09-11T04:44:07.496Z,17.01
2018-09-11T04:46:35.597Z,17.00
2018-09-11T04:49:04.488Z,17.02
2018-09-11T04:51:32.637Z,16.96
2018-09-11T04:54:01.079Z,16.97
2018-09-11T04:56:29.934Z,16.96
2018-09-11T04:58:58.393Z,16.95
2018-09-11T05:01:26.831Z,16.95
2018-09-11T05:03:55.272Z,16.95
2018-09-11T05:06:23.708Z,16.94
2018-09-11T05:08:52.164Z,16.92
2018-09-11T05:11:20.269Z,16.93
2018-09-11T05:13:49.085Z,16.92
2018-09-11T05:16:17.522Z,16.93
2018-09-11T05:18:45.976Z,16.94
2018-09-11T05:21:14.409Z,16.97
2018-09-11T05:23:42.525Z,16.96
2018-09-11T05:26:10.948Z,16.95
2018-09-11T05:28:39.392Z,16.99
2018-09-11T05:31:07.491Z,17.01
2018-09-11T05:33:35.928Z,17.00
2018-09-11T05:36:04.024Z,16.99
2018-09-11T05:38:32.477Z,16.96
2018-09-11T05:41:01.025Z,16.98
2018-09-11T05:43:29.137Z,16.99
2018-09-11T05:45:57.558Z,16.99
2018-09-11T05:48:26.193Z,16.96
2018-09-11T05:50:54.617Z,16.96
2018-09-11T05:53:23.082Z,16.99
2018-09-11T05:55:51.505Z,17.01
2018-09-11T05:58:20.433Z,17.08
2018-09-11T06:00:49.009Z,17.12
2018-09-11T06:03:17.441Z,17.20
2018-09-11T06:05:45.940Z,17.30
2018-09-11T06:08:14.509Z,17.40
2018-09-11T06:10:42.993Z,17.51
2018-09-11T06:13:11.641Z,17.63
2018-09-11T06:15:39.940Z,17.76
2018-09-11T06:18:08.565Z,17.87
2018-09-11T06:20:36.992Z,17.91
2018-09-11T06:23:05.118Z,17.88
2018-09-11T06:25:33.545Z,17.90
2018-09-11T06:28:01.985Z,17.91
2018-09-11T06:30:30.468Z,17.98
2018-09-11T06:32:58.905Z,18.07
2018-09-11T06:35:27.381Z,18.11
2018-09-11T06:37:55.958Z,18.06
2018-09-11T06:40:24.642Z,18.31
2018-09-11T06:42:52.965Z,18.43
2018-09-11T06:45:21.621Z,18.54
2018-09-11T06:47:50.045Z,18.60
2018-09-11T06:50:18.485Z,18.60
2018-09-11T06:52:47.108Z,18.56
2018-09-11T06:55:15.801Z,18.55
2018-09-11T06:57:44.228Z,18.65
2018-09-11T07:00:12.902Z,18.70
2018-09-11T07:02:41.025Z,18.76
2018-09-11T07:05:09.470Z,18.84
2018-09-11T07:07:37.905Z,18.93
2018-09-11T07:10:06.710Z,19.05
2018-09-11T07:12:35.154Z,19.13
2018-09-11T07:15:03.573Z,19.07
2018-09-11T07:17:32.005Z,19.03
2018-09-11T07:20:00.617Z,19.08
2018-09-11T07:22:29.309Z,19.15
2018-09-11T07:24:57.417Z,19.22
2018-09-11T07:27:26.162Z,19.35
2018-09-11T07:29:55.028Z,19.46
2018-09-11T07:32:23.523Z,19.48
2018-09-11T07:34:52.141Z,19.46
2018-09-11T07:37:20.579Z,19.52
2018-09-11T07:39:48.673Z,19.53
2018-09-11T07:42:17.095Z,19.66
2018-09-11T07:44:45.538Z,19.67
2018-09-11T07:47:13.961Z,19.74
2018-09-11T07:49:42.655Z,19.70
2018-09-11T07:52:11.069Z,19.73
2018-09-11T07:54:39.509Z,19.84
2018-09-11T07:57:08.622Z,19.88
2018-09-11T07:59:37.060Z,19.92
2018-09-11T08:02:06.080Z,20.11
2018-09-11T08:04:34.501Z,20.12
2018-09-11T08:07:03.177Z,20.10
2018-09-11T08:09:33.548Z,20.09
2018-09-11T08:12:02.224Z,20.14
2018-09-11T08:14:30.470Z,20.21
2018-09-11T08:16:58.944Z,20.23
2018-09-11T08:19:27.609Z,20.27
2018-09-11T08:21:56.049Z,20.42
2018-09-11T08:24:24.665Z,20.52
2018-09-11T08:26:53.305Z,20.57
2018-09-11T08:29:21.848Z,20.65
2018-09-11T08:31:50.093Z,20.79
2018-09-11T08:34:18.518Z,20.84
2018-09-11T08:36:46.952Z,20.97
2018-09-11T08:39:15.382Z,21.15
2018-09-11T08:41:43.819Z,21.33
2018-09-11T08:44:11.912Z,21.26
2018-09-11T08:46:40.685Z,21.14
2018-09-11T08:49:09.257Z,21.08
2018-09-11T08:51:37.699Z,21.06
2018-09-11T08:54:05.955Z,21.05
2018-09-11T08:56:34.629Z,21.13
2018-09-11T08:59:03.090Z,21.22
2018-09-11T09:01:31.541Z,21.30
2018-09-11T09:03:59.965Z,21.43
2018-09-11T09:06:28.835Z,21.68
2018-09-11T09:08:57.273Z,21.73
2018-09-11T09:11:26.057Z,21.59
2018-09-11T09:13:54.481Z,21.58
2018-09-11T09:16:22.925Z,21.76
2018-09-11T09:18:51.013Z,21.83
2018-09-11T09:21:19.109Z,21.86
2018-09-11T09:23:47.726Z,21.91
2018-09-11T09:26:16.164Z,22.13
2018-09-11T09:28:45.488Z,22.39
2018-09-11T09:31:13.932Z,22.48
2018-09-11T09:33:42.648Z,22.43
2018-09-11T09:36:10.746Z,22.37
2018-09-11T09:38:38.837Z,22.34
2018-09-11T09:41:07.289Z,22.43
2018-09-11T09:43:35.732Z,22.46
2018-09-11T09:46:04.269Z,22.51
2018-09-11T09:48:32.720Z,22.50
2018-09-11T09:51:00.827Z,22.47
2018-09-11T09:53:29.284Z,22.56
2018-09-11T09:55:57.707Z,22.80
2018-09-11T09:58:26.054Z,23.04
2018-09-11T10:00:56.997Z,23.22
2018-09-11T10:03:25.661Z,23.38
2018-09-11T10:05:53.737Z,23.54
2018-09-11T10:08:22.193Z,23.64
2018-09-11T10:10:50.665Z,23.64
2018-09-11T10:13:19.272Z,23.52
2018-09-11T10:15:47.705Z,23.47
2018-09-11T10:18:16.137Z,23.48
2018-09-11T10:20:44.573Z,23.47
2018-09-11T10:23:13.005Z,23.60
2018-09-11T10:25:41.665Z,23.83
2018-09-11T10:28:10.107Z,23.94
2018-09-11T10:30:38.193Z,23.93
2018-09-11T10:33:07.213Z,24.00
2018-09-11T10:35:36.065Z,24.08
2018-09-11T10:38:04.738Z,24.37
2018-09-11T10:40:33.353Z,24.67
2018-09-11T10:43:01.468Z,24.99
2018-09-11T10:45:29.797Z,25.01
2018-09-11T10:47:58.454Z,24.91
2018-09-11T10:50:26.891Z,24.92
2018-09-11T10:52:55.357Z,24.95
2018-09-11T10:55:23.769Z,24.96
2018-09-11T10:57:52.215Z,25.01
2018-09-11T11:00:20.357Z,25.27
2018-09-11T11:02:48.958Z,25.35
2018-09-11T11:05:17.390Z,25.27
2018-09-11T11:07:46.109Z,25.11
2018-09-11T11:10:14.553Z,25.08
2018-09-11T11:12:43.048Z,24.99
2018-09-11T11:15:11.481Z,25.10
2018-09-11T11:17:40.122Z,25.28
2018-09-11T11:20:08.814Z,25.38
2018-09-11T11:22:37.286Z,25.49
2018-09-11T11:25:05.370Z,25.48
2018-09-11T11:27:33.473Z,25.54
2018-09-11T11:30:01.922Z,25.60
2018-09-11T11:32:30.356Z,25.57
2018-09-11T11:34:59.209Z,25.60
2018-09-11T11:37:27.810Z,25.78
2018-09-11T11:39:56.001Z,25.92
2018-09-11T11:42:24.495Z,25.99
2018-09-11T11:44:53.070Z,26.19
2018-09-11T11:47:21.522Z,26.60
2018-09-11T11:49:51.277Z,26.70
2018-09-11T11:52:19.993Z,26.80
2018-09-11T11:54:49.233Z,27.05
2018-09-11T11:57:17.600Z,27.11
2018-09-11T11:59:46.033Z,27.03
2018-09-11T12:02:14.630Z,26.85
2018-09-11T12:04:43.082Z,26.72
2018-09-11T12:07:11.513Z,26.71
2018-09-11T12:09:40.209Z,26.82
2018-09-11T12:12:08.501Z,26.99
2018-09-11T12:14:36.946Z,27.22
2018-09-11T12:17:05.836Z,27.34
2018-09-11T12:19:34.333Z,27.32
2018-09-11T12:22:02.997Z,27.25
2018-09-11T12:24:31.434Z,27.35
2018-09-11T12:27:00.061Z,27.36
2018-09-11T12:29:28.677Z,27.31
2018-09-11T12:31:57.298Z,27.38
2018-09-11T12:34:25.765Z,27.42
2018-09-11T12:36:54.420Z,27.50
2018-09-11T12:39:22.894Z,27.53
2018-09-11T12:41:51.329Z,27.58
2018-09-11T12:44:19.963Z,27.53
2018-09-11T12:46:48.580Z,27.59
2018-09-11T12:49:17.059Z,27.82
2018-09-11T12:51:46.329Z,28.11
2018-09-11T12:54:14.809Z,28.44
2018-09-11T12:56:43.508Z,28.49
2018-09-11T12:59:12.373Z,28.22
2018-09-11T13:01:40.807Z,27.99
2018-09-11T13:04:09.289Z,27.87
2018-09-11T13:06:37.972Z,27.75
2018-09-11T13:09:07.677Z,27.71
2018-09-11T13:11:36.339Z,27.72
2018-09-11T13:14:04.681Z,27.77
2018-09-11T13:16:33.106Z,27.97
2018-09-11T13:19:01.201Z,28.14
2018-09-11T13:21:29.645Z,28.28
2018-09-11T13:23:58.085Z,28.42
2018-09-11T13:26:26.793Z,28.54
2018-09-11T13:28:54.914Z,28.78
2018-09-11T13:31:23.438Z,28.84
2018-09-11T13:33:51.653Z,28.76
2018-09-11T13:36:20.356Z,28.89
2018-09-11T13:38:48.521Z,28.84
2018-09-11T13:41:16.813Z,28.67
2018-09-11T13:43:45.721Z,28.39
2018-09-11T13:46:14.223Z,28.23
2018-09-11T13:48:42.817Z,28.21
2018-09-11T13:51:10.936Z,28.12
2018-09-11T13:53:39.033Z,27.87
2018-09-11T13:56:07.633Z,27.69
2018-09-11T13:58:36.282Z,27.71
2018-09-11T14:01:04.413Z,27.89
2018-09-11T14:03:32.969Z,28.17
2018-09-11T14:06:01.715Z,28.42
2018-09-11T14:08:30.348Z,28.32
2018-09-11T14:10:59.261Z,28.14
2018-09-11T14:13:28.256Z,27.78
2018-09-11T14:15:56.632Z,27.42
2018-09-11T14:18:25.824Z,27.29
2018-09-11T14:20:55.172Z,27.43
2018-09-11T14:23:23.617Z,27.52
2018-09-11T14:25:52.061Z,27.51
2018-09-11T14:28:20.472Z,27.44
2018-09-11T14:30:48.830Z,27.28
2018-09-11T14:33:16.933Z,27.15
2018-09-11T14:35:45.357Z,27.02
2018-09-11T14:38:14.171Z,26.93
2018-09-11T14:40:42.401Z,26.93
2018-09-11T14:43:11.093Z,26.90
2018-09-11T14:45:39.537Z,26.85
2018-09-11T14:48:07.970Z,26.81
2018-09-11T14:50:36.677Z,26.75
2018-09-11T14:53:05.118Z,26.72
2018-09-11T14:55:33.442Z,26.72
2018-09-11T14:58:01.897Z,26.64
2018-09-11T15:00:30.439Z,26.54
2018-09-11T15:02:59.518Z,26.48
2018-09-11T15:05:27.936Z,26.41
2018-09-11T15:07:56.686Z,26.28
2018-09-11T15:10:25.169Z,26.17
2018-09-11T15:12:54.218Z,26.09
2018-09-11T15:15:22.877Z,26.03
2018-09-11T15:17:50.994Z,25.95
2018-09-11T15:20:19.413Z,25.93
2018-09-11T15:22:47.858Z,25.90
2018-09-11T15:25:16.523Z,25.87
2018-09-11T15:27:44.627Z,25.87
2018-09-11T15:30:13.088Z,25.84
2018-09-11T15:32:41.740Z,25.85
2018-09-11T15:35:10.210Z,25.93
2018-09-11T15:37:38.762Z,25.98
2018-09-11T15:40:07.430Z,26.01
2018-09-11T15:42:35.534Z,25.98
2018-09-11T15:45:03.647Z,25.93
2018-09-11T15:47:31.961Z,25.90
2018-09-11T15:50:00.065Z,25.87
2018-09-11T15:52:28.525Z,25.84
2018-09-11T15:54:56.998Z,25.83
2018-09-11T15:57:25.113Z,25.88
2018-09-11T15:59:53.541Z,25.95
2018-09-11T16:02:22.009Z,26.00
2018-09-11T16:04:50.441Z,26.04
2018-09-11T16:07:18.937Z,26.04
2018-09-11T16:09:47.562Z,26.04
2018-09-11T16:12:16.250Z,26.03
2018-09-11T16:14:44.344Z,25.99
2018-09-11T16:17:12.805Z,25.95
2018-09-11T16:19:41.248Z,25.95
2018-09-11T16:22:09.772Z,25.97
2018-09-11T16:24:38.405Z,25.95
2018-09-11T16:27:06.646Z,25.94
2018-09-11T16:29:34.797Z,25.93
2018-09-11T16:32:03.942Z,25.90
2018-09-11T16:34:32.613Z,25.87
2018-09-11T16:37:01.142Z,25.80
2018-09-11T16:39:29.562Z,25.78
2018-09-11T16:41:57.998Z,25.79
2018-09-11T16:44:26.438Z,25.79
2018-09-11T16:46:54.849Z,25.80
2018-09-11T16:49:23.369Z,25.79
2018-09-11T16:51:51.836Z,25.79
2018-09-11T16:54:20.453Z,25.76
2018-09-11T16:56:48.933Z,25.74
2018-09-11T16:59:17.361Z,25.68
2018-09-11T17:01:46.032Z,25.66
2018-09-11T17:04:15.201Z,25.64
2018-09-11T17:06:45.244Z,25.66
2018-09-11T17:09:13.739Z,25.65
2018-09-11T17:11:42.181Z,25.61
2018-09-11T17:14:10.302Z,25.60
2018-09-11T17:16:38.728Z,25.60
2018-09-11T17:19:06.879Z,25.59
2018-09-11T17:21:34.973Z,25.59
2018-09-11T17:24:03.584Z,25.60
2018-09-11T17:26:31.702Z,25.59
2018-09-11T17:29:00.010Z,25.58
2018-09-11T17:31:28.474Z,25.55
2018-09-11T17:33:57.149Z,25.53
2018-09-11T17:36:25.676Z,25.52
2018-09-11T17:39:02.565Z,25.52
2018-09-11T17:41:31.029Z,25.53
2018-09-11T17:43:59.149Z,25.52
2018-09-11T17:46:27.585Z,25.51
2018-09-11T17:48:56.534Z,25.47
2018-09-11T17:51:24.865Z,25.48
2018-09-11T17:53:53.507Z,25.38
2018-09-11T17:56:21.840Z,25.40
2018-09-11T17:58:57.627Z,25.41
2018-09-11T18:01:26.549Z,25.42
2018-09-11T18:03:54.985Z,25.43
2018-09-11T18:06:23.409Z,25.42
2018-09-11T18:08:52.114Z,25.42
2018-09-11T18:11:20.558Z,25.39
2018-09-11T18:13:49.077Z,25.36
2018-09-11T18:16:17.516Z,25.39
2018-09-11T18:18:45.998Z,25.38
2018-09-11T18:21:14.662Z,25.33
2018-09-11T18:23:43.108Z,25.32
2018-09-11T18:26:11.603Z,25.31
2018-09-11T18:28:40.209Z,25.22
2018-09-11T18:31:08.323Z,25.23
2018-09-11T18:33:37.035Z,25.23
2018-09-11T18:36:05.710Z,25.25
2018-09-11T18:38:33.801Z,25.24
2018-09-11T18:41:02.247Z,25.22
2018-09-11T18:43:30.333Z,25.22
2018-09-11T18:45:59.126Z,25.19
2018-09-11T18:48:27.560Z,25.17
2018-09-11T18:50:56.009Z,25.16
2018-09-11T18:53:24.437Z,25.15
2018-09-11T18:55:52.878Z,25.13
2018-09-11T18:58:21.310Z,25.15
2018-09-11T19:00:49.997Z,25.14
2018-09-11T19:03:19.148Z,25.14
2018-09-11T19:05:48.799Z,25.15
2018-09-11T19:08:17.342Z,25.18
2018-09-11T19:10:45.821Z,25.18
2018-09-11T19:13:14.244Z,25.14
2018-09-11T19:15:43.032Z,25.11
2018-09-11T19:18:11.130Z,25.08
2018-09-11T19:20:39.564Z,25.04
2018-09-11T19:23:08.052Z,25.00
2018-09-11T19:25:36.497Z,24.96
2018-09-11T19:28:05.171Z,24.94
2018-09-11T19:30:33.667Z,24.91
2018-09-11T19:33:02.651Z,24.85
2018-09-11T19:35:31.093Z,24.80
2018-09-11T19:37:59.517Z,24.75
2018-09-11T19:40:27.989Z,24.70
2018-09-11T19:42:57.583Z,24.65
2018-09-11T19:45:26.684Z,24.60
2018-09-11T19:47:55.258Z,24.55
2018-09-11T19:50:23.772Z,24.50
2018-09-11T19:52:52.141Z,24.47
2018-09-11T19:55:20.725Z,24.43
2018-09-11T19:57:49.389Z,24.38
2018-09-11T20:00:17.490Z,24.32
2018-09-11T20:02:46.101Z,24.26
2018-09-11T20:05:14.529Z,24.21
2018-09-11T20:07:42.957Z,24.16
2018-09-11T20:10:12.066Z,24.12
2018-09-11T20:12:40.510Z,24.09
2018-09-11T20:15:08.869Z,24.06
2018-09-11T20:17:37.301Z,24.02
2018-09-11T20:20:05.811Z,23.97
2018-09-11T20:22:34.239Z,23.90
2018-09-11T20:25:02.687Z,23.84
2018-09-11T20:27:31.321Z,23.78
2018-09-11T20:29:59.657Z,23.69
2018-09-11T20:32:28.107Z,23.64
2018-09-11T20:34:56.774Z,23.59
2018-09-11T20:37:25.327Z,23.53
2018-09-11T20:39:53.901Z,23.48
2018-09-11T20:42:22.358Z,23.43
2018-09-11T20:44:50.718Z,23.39
2018-09-11T20:47:19.008Z,23.35
2018-09-11T20:49:47.435Z,23.29
2018-09-11T20:52:15.540Z,23.23
2018-09-11T20:54:44.199Z,23.17
2018-09-11T20:57:12.790Z,23.11
2018-09-11T20:59:41.522Z,23.02
2018-09-11T21:02:09.981Z,22.91
2018-09-11T21:04:38.404Z,22.82
2018-09-11T21:07:06.693Z,22.75
2018-09-11T21:09:34.817Z,22.67
2018-09-11T21:12:03.288Z,22.63
2018-09-11T21:14:31.710Z,22.56
2018-09-11T21:17:00.176Z,22.49
2018-09-11T21:19:28.635Z,22.39
2018-09-11T21:21:57.102Z,22.34
2018-09-11T21:24:25.528Z,22.27
2018-09-11T21:26:54.186Z,22.22
2018-09-11T21:29:22.273Z,22.19
2018-09-11T21:31:50.729Z,22.17
2018-09-11T21:34:19.154Z,22.13
2018-09-11T21:36:47.493Z,22.12
2018-09-11T21:39:16.161Z,22.09
2018-09-11T21:41:44.605Z,22.03
2018-09-11T21:44:12.721Z,21.99
2018-09-11T21:46:41.199Z,21.96
2018-09-11T21:49:09.622Z,21.94
2018-09-11T21:51:38.070Z,21.92
2018-09-11T21:54:06.493Z,21.86
2018-09-11T21:56:34.829Z,21.81
2018-09-11T21:59:03.073Z,21.81
2018-09-11T22:01:36.925Z,21.82
2018-09-11T22:04:05.022Z,21.84
2018-09-11T22:06:33.453Z,21.87
2018-09-11T22:09:02.245Z,21.89
2018-09-11T22:11:30.894Z,21.88
2018-09-11T22:13:59.225Z,21.91
2018-09-11T22:16:27.325Z,21.93
2018-09-11T22:18:59.464Z,21.94
2018-09-11T22:21:27.871Z,21.97
2018-09-11T22:23:56.873Z,21.98
2018-09-11T22:26:25.477Z,21.98
2018-09-11T22:28:53.916Z,21.96
2018-09-11T22:31:22.344Z,21.87
2018-09-11T22:33:50.782Z,21.74
2018-09-11T22:36:19.201Z,21.69
2018-09-11T22:38:47.300Z,21.64
2018-09-11T22:41:15.926Z,21.62
2018-09-11T22:43:44.401Z,21.60
2018-09-11T22:46:12.829Z,21.63
2018-09-11T22:48:41.274Z,21.65
2018-09-11T22:51:09.689Z,21.68
2018-09-11T22:53:38.689Z,21.70
2018-09-11T22:56:06.901Z,21.74
2018-09-11T22:58:35.613Z,21.79
2018-09-11T23:01:04.274Z,21.83
2018-09-11T23:03:32.705Z,21.85
2018-09-11T23:06:01.315Z,21.87
2018-09-11T23:08:29.665Z,21.86
2018-09-11T23:10:58.061Z,21.86
2018-09-11T23:13:26.165Z,21.86
2018-09-11T23:15:54.623Z,21.87
2018-09-11T23:18:23.320Z,21.86
2018-09-11T23:20:51.584Z,21.84
2018-09-11T23:23:20.023Z,21.85
2018-09-11T23:25:48.689Z,21.87
2018-09-11T23:28:17.141Z,21.90
2018-09-11T23:30:45.557Z,21.93
2018-09-11T23:33:13.984Z,21.95
2018-09-11T23:35:42.409Z,21.96
2018-09-11T23:38:11.241Z,21.96
2018-09-11T23:40:39.669Z,21.91
2018-09-11T23:43:08.129Z,21.92
2018-09-11T23:45:36.471Z,21.89
2018-09-11T23:48:04.832Z,21.87
2018-09-11T23:50:33.276Z,21.86
2018-09-11T23:53:01.937Z,21.84
2018-09-11T23:55:30.049Z,21.85
2018-09-11T23:57:58.489Z,21.85
